Airport View

Enter AWOS ICAO identifier for current METAR.

ex. KFNL

KINT 191854Z 23004KT 3SM -RA FEW022 BKN032 OVC050 24/21 A2983 RMK AO2 RAB41 SLP089 P0007 T02390211

19 Jun 2019 19:13

Phone: 336-661-3096

Other Area AWOS: KGSO - KEXX - KMWK - KSIF

TAF AMD KINT 191826Z 1918/2018 21007KT P6SM SCT022 BKN040 TEMPO 1918/1921 3SM -TSRA BR SCT012 BKN024CB FM192100 23009G15KT P6SM VCTS SCT030 BKN050CB TEMPO 1921/1924 BKN030CB FM200100 22004KT P6SM SCT150 FM201400 23008G15KT P6SM BKN100